sensor_id;sensor_type;location;lat;lon;timestamp;temperature;humidity
4324;DHT22;2175;51.018;6.994;2023-04-01T00:02:17;10.90;99.90
4324;DHT22;2175;51.018;6.994;2023-04-01T00:04:43;11.00;99.90
4324;DHT22;2175;51.018;6.994;2023-04-01T00:07:10;11.00;99.90
4324;DHT22;2175;51.018;6.994;2023-04-01T00:09:36;11.00;99.90
4324;DHT22;2175;51.018;6.994;2023-04-01T00:12:03;11.00;99.90
4324;DHT22;2175;51.018;6.994;2023-04-01T00:14:28;10.90;99.90
4324;DHT22;2175;51.018;6.994;2023-04-01T00:16:55;11.00;99.90
4324;DHT22;2175;51.018;6.994;2023-04-01T00:19:20;10.90;99.90
4324;DHT22;2175;51.018;6.994;2023-04-01T00:21:46;11.10;99.90
4324;DHT22;2175;51.018;6.994;2023-04-01T00:24:13;11.00;99.90
4324;DHT22;2175;51.018;6.994;2023-04-01T00:26:39;11.00;99.90
4324;DHT22;2175;51.018;6.994;2023-04-01T00:29:07;11.00;99.90
4324;DHT22;2175;51.018;6.994;2023-04-01T00:31:33;11.10;99.90
4324;DHT22;2175;51.018;6.994;2023-04-01T00:33:59;11.10;99.90
4324;DHT22;2175;51.018;6.994;2023-04-01T00:36:24;11.10;99.90
4324;DHT22;2175;51.018;6.994;2023-04-01T00:38:50;11.00;99.90
4324;DHT22;2175;51.018;6.994;2023-04-01T00:41:18;10.90;99.90
4324;DHT22;2175;51.018;6.994;2023-04-01T00:43:47;11.00;99.90
4324;DHT22;2175;51.018;6.994;2023-04-01T00:46:13;11.00;99.90
4324;DHT22;2175;51.018;6.994;2023-04-01T00:48:48;11.00;99.90
4324;DHT22;2175;51.018;6.994;2023-04-01T00:51:18;11.00;99.90
4324;DHT22;2175;51.018;6.994;2023-04-01T00:53:48;11.00;99.90
4324;DHT22;2175;51.018;6.994;2023-04-01T00:56:22;11.00;99.90
4324;DHT22;2175;51.018;6.994;2023-04-01T00:59:02;11.00;99.90
4324;DHT22;2175;51.018;6.994;2023-04-01T01:01:29;10.90;99.90
4324;DHT22;2175;51.018;6.994;2023-04-01T01:03:55;11.00;99.90
4324;DHT22;2175;51.018;6.994;2023-04-01T01:12:04;11.10;99.90
4324;DHT22;2175;51.018;6.994;2023-04-01T01:14:34;11.20;99.90
4324;DHT22;2175;51.018;6.994;2023-04-01T01:17:20;11.10;99.90
4324;DHT22;2175;51.018;6.994;2023-04-01T01:20:05;11.00;99.90
4324;DHT22;2175;51.018;6.994;2023-04-01T01:25:38;11.10;99.90
4324;DHT22;2175;51.018;6.994;2023-04-01T01:31:25;10.90;99.90
4324;DHT22;2175;51.018;6.994;2023-04-01T01:36:28;10.90;99.90
4324;DHT22;2175;51.018;6.994;2023-04-01T01:38:56;10.80;99.90
4324;DHT22;2175;51.018;6.994;2023-04-01T01:41:24;10.80;99.90
4324;DHT22;2175;51.018;6.994;2023-04-01T01:43:53;10.90;99.90
4324;DHT22;2175;51.018;6.994;2023-04-01T01:46:23;10.90;99.90
4324;DHT22;2175;51.018;6.994;2023-04-01T01:48:52;10.90;99.90
4324;DHT22;2175;51.018;6.994;2023-04-01T01:51:20;10.90;99.90
4324;DHT22;2175;51.018;6.994;2023-04-01T01:53:46;10.90;99.90
4324;DHT22;2175;51.018;6.994;2023-04-01T01:56:16;10.80;99.90
4324;DHT22;2175;51.018;6.994;2023-04-01T01:58:47;10.90;99.90
4324;DHT22;2175;51.018;6.994;2023-04-01T02:01:25;10.90;99.90
4324;DHT22;2175;51.018;6.994;2023-04-01T02:03:52;10.80;99.90
4324;DHT22;2175;51.018;6.994;2023-04-01T02:06:22;10.70;99.90
4324;DHT22;2175;51.018;6.994;2023-04-01T02:08:55;10.70;99.90
4324;DHT22;2175;51.018;6.994;2023-04-01T02:11:43;10.60;99.90
4324;DHT22;2175;51.018;6.994;2023-04-01T02:14:21;10.40;99.90
4324;DHT22;2175;51.018;6.994;2023-04-01T02:16:57;10.40;99.90
4324;DHT22;2175;51.018;6.994;2023-04-01T02:19:34;10.30;99.90
4324;DHT22;2175;51.018;6.994;2023-04-01T02:22:03;10.40;99.90
4324;DHT22;2175;51.018;6.994;2023-04-01T02:24:31;10.40;99.90
4324;DHT22;2175;51.018;6.994;2023-04-01T02:26:58;10.30;99.90
4324;DHT22;2175;51.018;6.994;2023-04-01T02:29:25;10.30;99.90
4324;DHT22;2175;51.018;6.994;2023-04-01T02:31:52;10.20;99.90
4324;DHT22;2175;51.018;6.994;2023-04-01T02:34:19;9.90;99.90
4324;DHT22;2175;51.018;6.994;2023-04-01T02:36:47;9.90;99.90
4324;DHT22;2175;51.018;6.994;2023-04-01T02:39:13;9.90;99.90
4324;DHT22;2175;51.018;6.994;2023-04-01T02:41:40;9.90;99.90
4324;DHT22;2175;51.018;6.994;2023-04-01T02:44:06;9.80;99.90
4324;DHT22;2175;51.018;6.994;2023-04-01T02:46:32;9.90;99.90
4324;DHT22;2175;51.018;6.994;2023-04-01T02:48:58;9.80;99.90
4324;DHT22;2175;51.018;6.994;2023-04-01T02:51:25;9.80;99.90
4324;DHT22;2175;51.018;6.994;2023-04-01T02:53:50;9.90;99.90
4324;DHT22;2175;51.018;6.994;2023-04-01T02:56:16;9.90;99.90
4324;DHT22;2175;51.018;6.994;2023-04-01T02:58:42;9.90;99.90
4324;DHT22;2175;51.018;6.994;2023-04-01T03:01:07;9.90;99.90
4324;DHT22;2175;51.018;6.994;2023-04-01T03:03:33;9.90;99.90
4324;DHT22;2175;51.018;6.994;2023-04-01T03:06:07;9.90;99.90
4324;DHT22;2175;51.018;6.994;2023-04-01T03:08:33;9.90;99.90
4324;DHT22;2175;51.018;6.994;2023-04-01T03:10:59;9.90;99.90
4324;DHT22;2175;51.018;6.994;2023-04-01T03:13:25;9.90;99.90
4324;DHT22;2175;51.018;6.994;2023-04-01T03:15:51;9.90;99.90
4324;DHT22;2175;51.018;6.994;2023-04-01T03:18:16;9.90;99.90
4324;DHT22;2175;51.018;6.994;2023-04-01T03:20:42;9.90;99.90
4324;DHT22;2175;51.018;6.994;2023-04-01T03:23:08;9.90;99.90
4324;DHT22;2175;51.018;6.994;2023-04-01T03:25:34;9.90;99.90
4324;DHT22;2175;51.018;6.994;2023-04-01T03:27:59;9.90;99.90
4324;DHT22;2175;51.018;6.994;2023-04-01T03:30:25;9.80;99.90
4324;DHT22;2175;51.018;6.994;2023-04-01T03:32:51;9.80;99.90
4324;DHT22;2175;51.018;6.994;2023-04-01T03:35:17;9.80;99.90
4324;DHT22;2175;51.018;6.994;2023-04-01T03:37:44;9.80;99.90
4324;DHT22;2175;51.018;6.994;2023-04-01T03:40:10;9.80;99.90
4324;DHT22;2175;51.018;6.994;2023-04-01T03:42:36;9.80;99.90
4324;DHT22;2175;51.018;6.994;2023-04-01T03:45:03;9.80;99.90
4324;DHT22;2175;51.018;6.994;2023-04-01T03:47:29;9.80;99.90
4324;DHT22;2175;51.018;6.994;2023-04-01T03:49:55;9.80;99.90
4324;DHT22;2175;51.018;6.994;2023-04-01T03:52:20;9.80;99.90
4324;DHT22;2175;51.018;6.994;2023-04-01T03:54:46;9.80;99.90
4324;DHT22;2175;51.018;6.994;2023-04-01T03:57:12;9.80;99.90
4324;DHT22;2175;51.018;6.994;2023-04-01T03:59:37;9.70;99.90
4324;DHT22;2175;51.018;6.994;2023-04-01T04:02:03;9.80;99.90
4324;DHT22;2175;51.018;6.994;2023-04-01T04:04:29;9.80;99.90
4324;DHT22;2175;51.018;6.994;2023-04-01T04:06:55;9.80;99.90
4324;DHT22;2175;51.018;6.994;2023-04-01T04:09:21;9.80;99.90
4324;DHT22;2175;51.018;6.994;2023-04-01T04:11:47;9.80;99.90
4324;DHT22;2175;51.018;6.994;2023-04-01T04:14:13;9.80;99.90
4324;DHT22;2175;51.018;6.994;2023-04-01T04:16:39;9.80;99.90
4324;DHT22;2175;51.018;6.994;2023-04-01T04:19:05;9.80;99.90
4324;DHT22;2175;51.018;6.994;2023-04-01T04:21:30;9.90;99.90
4324;DHT22;2175;51.018;6.994;2023-04-01T04:23:56;9.80;99.90
4324;DHT22;2175;51.018;6.994;2023-04-01T04:26:21;9.90;99.90
4324;DHT22;2175;51.018;6.994;2023-04-01T04:28:47;9.80;99.90
4324;DHT22;2175;51.018;6.994;2023-04-01T04:31:19;9.90;99.90
4324;DHT22;2175;51.018;6.994;2023-04-01T04:33:45;9.90;99.90
4324;DHT22;2175;51.018;6.994;2023-04-01T04:36:11;9.90;99.90
4324;DHT22;2175;51.018;6.994;2023-04-01T04:38:36;9.90;99.90
4324;DHT22;2175;51.018;6.994;2023-04-01T04:41:02;9.90;99.90
4324;DHT22;2175;51.018;6.994;2023-04-01T04:43:28;9.90;99.90
4324;DHT22;2175;51.018;6.994;2023-04-01T04:45:53;9.90;99.90
4324;DHT22;2175;51.018;6.994;2023-04-01T04:48:19;9.80;99.90
4324;DHT22;2175;51.018;6.994;2023-04-01T04:50:50;9.80;99.90
4324;DHT22;2175;51.018;6.994;2023-04-01T04:53:17;9.70;99.90
4324;DHT22;2175;51.018;6.994;2023-04-01T04:55:47;9.70;99.90
4324;DHT22;2175;51.018;6.994;2023-04-01T04:58:13;9.70;99.90
4324;DHT22;2175;51.018;6.994;2023-04-01T05:00:39;9.70;99.90
4324;DHT22;2175;51.018;6.994;2023-04-01T05:03:05;9.70;99.90
4324;DHT22;2175;51.018;6.994;2023-04-01T05:05:30;9.70;99.90
4324;DHT22;2175;51.018;6.994;2023-04-01T05:07:56;9.70;99.90
4324;DHT22;2175;51.018;6.994;2023-04-01T05:10:21;9.70;99.90
4324;DHT22;2175;51.018;6.994;2023-04-01T05:12:47;9.70;99.90
4324;DHT22;2175;51.018;6.994;2023-04-01T05:15:13;9.60;99.90
4324;DHT22;2175;51.018;6.994;2023-04-01T05:17:39;9.60;99.90
4324;DHT22;2175;51.018;6.994;2023-04-01T05:20:05;9.70;99.90
4324;DHT22;2175;51.018;6.994;2023-04-01T05:22:31;9.70;99.90
4324;DHT22;2175;51.018;6.994;2023-04-01T05:24:56;9.70;99.90
4324;DHT22;2175;51.018;6.994;2023-04-01T05:27:22;9.70;99.90
4324;DHT22;2175;51.018;6.994;2023-04-01T05:29:48;9.60;99.90
4324;DHT22;2175;51.018;6.994;2023-04-01T05:32:13;9.60;99.90
4324;DHT22;2175;51.018;6.994;2023-04-01T05:34:39;9.60;99.90
4324;DHT22;2175;51.018;6.994;2023-04-01T05:37:04;9.60;99.90
4324;DHT22;2175;51.018;6.994;2023-04-01T05:39:30;9.60;99.90
4324;DHT22;2175;51.018;6.994;2023-04-01T05:41:56;9.60;99.90
4324;DHT22;2175;51.018;6.994;2023-04-01T05:44:21;9.60;99.90
4324;DHT22;2175;51.018;6.994;2023-04-01T05:46:47;9.60;99.90
4324;DHT22;2175;51.018;6.994;2023-04-01T05:49:12;9.70;99.90
4324;DHT22;2175;51.018;6.994;2023-04-01T05:51:38;9.70;99.90
4324;DHT22;2175;51.018;6.994;2023-04-01T05:54:05;9.60;99.90
4324;DHT22;2175;51.018;6.994;2023-04-01T05:56:30;9.60;99.90
4324;DHT22;2175;51.018;6.994;2023-04-01T05:58:56;9.70;99.90
4324;DHT22;2175;51.018;6.994;2023-04-01T06:01:21;9.60;99.90
4324;DHT22;2175;51.018;6.994;2023-04-01T06:03:47;9.60;99.90
4324;DHT22;2175;51.018;6.994;2023-04-01T06:06:24;9.70;99.90
4324;DHT22;2175;51.018;6.994;2023-04-01T06:08:51;9.60;99.90
4324;DHT22;2175;51.018;6.994;2023-04-01T06:11:26;9.60;99.90
4324;DHT22;2175;51.018;6.994;2023-04-01T06:16:55;9.50;99.90
4324;DHT22;2175;51.018;6.994;2023-04-01T06:19:57;9.50;99.90
4324;DHT22;2175;51.018;6.994;2023-04-01T06:22:40;9.60;99.90
4324;DHT22;2175;51.018;6.994;2023-04-01T06:33:31;9.70;99.90
4324;DHT22;2175;51.018;6.994;2023-04-01T06:42:09;9.70;99.90
4324;DHT22;2175;51.018;6.994;2023-04-01T06:45:00;9.80;99.90
4324;DHT22;2175;51.018;6.994;2023-04-01T06:50:43;9.90;99.90
4324;DHT22;2175;51.018;6.994;2023-04-01T06:53:21;9.90;99.90
4324;DHT22;2175;51.018;6.994;2023-04-01T06:55:57;9.90;99.90
4324;DHT22;2175;51.018;6.994;2023-04-01T06:58:39;10.00;99.90
4324;DHT22;2175;51.018;6.994;2023-04-01T07:01:10;10.00;99.90
4324;DHT22;2175;51.018;6.994;2023-04-01T07:03:47;10.00;99.90
4324;DHT22;2175;51.018;6.994;2023-04-01T07:07:08;10.10;99.90
4324;DHT22;2175;51.018;6.994;2023-04-01T07:09:34;10.00;99.90
4324;DHT22;2175;51.018;6.994;2023-04-01T07:12:10;10.00;99.90
4324;DHT22;2175;51.018;6.994;2023-04-01T07:14:39;9.90;99.90
4324;DHT22;2175;51.018;6.994;2023-04-01T07:17:19;9.90;99.90
4324;DHT22;2175;51.018;6.994;2023-04-01T07:22:30;9.80;99.90
4324;DHT22;2175;51.018;6.994;2023-04-01T07:24:59;9.90;99.90
4324;DHT22;2175;51.018;6.994;2023-04-01T07:27:26;9.80;99.90
4324;DHT22;2175;51.018;6.994;2023-04-01T07:29:55;9.90;99.90
4324;DHT22;2175;51.018;6.994;2023-04-01T07:45:39;9.80;99.90
4324;DHT22;2175;51.018;6.994;2023-04-01T07:53:41;9.80;99.90
4324;DHT22;2175;51.018;6.994;2023-04-01T08:07:44;10.20;99.90
4324;DHT22;2175;51.018;6.994;2023-04-01T08:13:07;10.10;99.90
4324;DHT22;2175;51.018;6.994;2023-04-01T08:21:14;10.10;99.90
4324;DHT22;2175;51.018;6.994;2023-04-01T08:23:47;10.00;99.90
4324;DHT22;2175;51.018;6.994;2023-04-01T08:26:36;9.90;99.90
4324;DHT22;2175;51.018;6.994;2023-04-01T08:29:21;9.90;99.90
4324;DHT22;2175;51.018;6.994;2023-04-01T08:31:57;9.90;99.90
4324;DHT22;2175;51.018;6.994;2023-04-01T08:34:30;9.90;99.90
4324;DHT22;2175;51.018;6.994;2023-04-01T08:37:04;10.00;99.90
4324;DHT22;2175;51.018;6.994;2023-04-01T08:42:27;10.10;99.90
4324;DHT22;2175;51.018;6.994;2023-04-01T08:45:05;10.20;99.90
4324;DHT22;2175;51.018;6.994;2023-04-01T08:53:48;10.10;99.90
4324;DHT22;2175;51.018;6.994;2023-04-01T08:56:57;10.00;99.90
4324;DHT22;2175;51.018;6.994;2023-04-01T08:59:39;10.00;99.90
4324;DHT22;2175;51.018;6.994;2023-04-01T09:02:25;10.10;99.90
4324;DHT22;2175;51.018;6.994;2023-04-01T09:16:04;10.30;99.90
4324;DHT22;2175;51.018;6.994;2023-04-01T09:18:55;10.40;99.90
4324;DHT22;2175;51.018;6.994;2023-04-01T09:32:53;10.40;99.90
4324;DHT22;2175;51.018;6.994;2023-04-01T09:35:30;10.50;99.90
4324;DHT22;2175;51.018;6.994;2023-04-01T09:41:07;10.50;99.90
4324;DHT22;2175;51.018;6.994;2023-04-01T09:46:51;10.60;99.90
4324;DHT22;2175;51.018;6.994;2023-04-01T09:49:42;10.40;99.90
4324;DHT22;2175;51.018;6.994;2023-04-01T09:52:44;10.30;99.90
4324;DHT22;2175;51.018;6.994;2023-04-01T10:36:59;10.50;99.90
4324;DHT22;2175;51.018;6.994;2023-04-01T10:39:57;10.50;99.90
4324;DHT22;2175;51.018;6.994;2023-04-01T10:48:01;10.30;99.90
4324;DHT22;2175;51.018;6.994;2023-04-01T10:55:52;10.30;99.90
4324;DHT22;2175;51.018;6.994;2023-04-01T11:01:37;10.40;99.90
4324;DHT22;2175;51.018;6.994;2023-04-01T11:32:54;10.70;99.90
4324;DHT22;2175;51.018;6.994;2023-04-01T11:41:41;11.00;99.90
4324;DHT22;2175;51.018;6.994;2023-04-01T11:44:17;11.00;99.90
4324;DHT22;2175;51.018;6.994;2023-04-01T11:49:59;11.10;99.90
4324;DHT22;2175;51.018;6.994;2023-04-01T11:55:28;10.90;99.90
4324;DHT22;2175;51.018;6.994;2023-04-01T11:58:30;11.10;99.90
4324;DHT22;2175;51.018;6.994;2023-04-01T12:03:47;11.30;99.90
4324;DHT22;2175;51.018;6.994;2023-04-01T12:14:54;11.80;99.90
4324;DHT22;2175;51.018;6.994;2023-04-01T12:17:48;11.90;99.90
4324;DHT22;2175;51.018;6.994;2023-04-01T12:23:21;11.50;99.90
4324;DHT22;2175;51.018;6.994;2023-04-01T12:31:38;11.80;99.90
4324;DHT22;2175;51.018;6.994;2023-04-01T12:37:18;11.80;99.90
4324;DHT22;2175;51.018;6.994;2023-04-01T12:42:44;11.80;99.90
4324;DHT22;2175;51.018;6.994;2023-04-01T12:45:32;12.00;99.90
4324;DHT22;2175;51.018;6.994;2023-04-01T12:53:32;11.40;99.90
4324;DHT22;2175;51.018;6.994;2023-04-01T12:56:03;11.40;99.90
4324;DHT22;2175;51.018;6.994;2023-04-01T12:58:55;11.30;99.90
4324;DHT22;2175;51.018;6.994;2023-04-01T13:11:18;11.80;99.90
4324;DHT22;2175;51.018;6.994;2023-04-01T13:17:20;11.80;99.90
4324;DHT22;2175;51.018;6.994;2023-04-01T13:30:21;11.40;99.90
4324;DHT22;2175;51.018;6.994;2023-04-01T13:46:05;11.00;99.90
4324;DHT22;2175;51.018;6.994;2023-04-01T14:04:56;11.30;99.90
4324;DHT22;2175;51.018;6.994;2023-04-01T14:32:45;11.00;99.90
4324;DHT22;2175;51.018;6.994;2023-04-01T14:38:47;11.00;99.90
4324;DHT22;2175;51.018;6.994;2023-04-01T14:41:42;10.90;99.90
4324;DHT22;2175;51.018;6.994;2023-04-01T14:44:29;10.80;99.90
4324;DHT22;2175;51.018;6.994;2023-04-01T14:49:39;10.70;99.90
4324;DHT22;2175;51.018;6.994;2023-04-01T14:52:28;10.70;99.90
4324;DHT22;2175;51.018;6.994;2023-04-01T14:54:54;10.80;99.90
4324;DHT22;2175;51.018;6.994;2023-04-01T14:57:29;10.70;99.90
4324;DHT22;2175;51.018;6.994;2023-04-01T15:02:57;10.70;99.90
4324;DHT22;2175;51.018;6.994;2023-04-01T15:05:32;10.80;99.90
4324;DHT22;2175;51.018;6.994;2023-04-01T15:08:23;10.90;99.90
4324;DHT22;2175;51.018;6.994;2023-04-01T15:13:41;11.00;99.90
4324;DHT22;2175;51.018;6.994;2023-04-01T15:35:31;11.20;99.90
4324;DHT22;2175;51.018;6.994;2023-04-01T15:41:45;11.20;99.90
4324;DHT22;2175;51.018;6.994;2023-04-01T15:44:03;11.30;99.90
4324;DHT22;2175;51.018;6.994;2023-04-01T15:46:43;11.40;99.90
4324;DHT22;2175;51.018;6.994;2023-04-01T15:59:57;11.30;99.90
4324;DHT22;2175;51.018;6.994;2023-04-01T16:02:46;11.10;99.90
4324;DHT22;2175;51.018;6.994;2023-04-01T16:10:55;11.10;99.90
4324;DHT22;2175;51.018;6.994;2023-04-01T16:21:52;10.90;99.90
4324;DHT22;2175;51.018;6.994;2023-04-01T16:24:58;10.80;99.90
4324;DHT22;2175;51.018;6.994;2023-04-01T16:27:33;10.70;99.90
4324;DHT22;2175;51.018;6.994;2023-04-01T16:33:19;10.80;99.90
4324;DHT22;2175;51.018;6.994;2023-04-01T16:43:38;11.00;99.90
4324;DHT22;2175;51.018;6.994;2023-04-01T16:46:39;11.00;99.90
4324;DHT22;2175;51.018;6.994;2023-04-01T16:51:52;10.80;99.90
4324;DHT22;2175;51.018;6.994;2023-04-01T16:59:40;10.70;99.90
4324;DHT22;2175;51.018;6.994;2023-04-01T17:04:48;10.60;99.90
4324;DHT22;2175;51.018;6.994;2023-04-01T17:10:41;10.50;99.90
4324;DHT22;2175;51.018;6.994;2023-04-01T17:16:14;10.50;99.90
4324;DHT22;2175;51.018;6.994;2023-04-01T17:57:52;10.30;99.90
4324;DHT22;2175;51.018;6.994;2023-04-01T18:17:18;10.20;99.90
4324;DHT22;2175;51.018;6.994;2023-04-01T18:25:41;10.00;99.90
4324;DHT22;2175;51.018;6.994;2023-04-01T18:33:36;9.90;99.90
4324;DHT22;2175;51.018;6.994;2023-04-01T18:39:04;10.00;99.90
4324;DHT22;2175;51.018;6.994;2023-04-01T18:52:31;9.90;99.90
4324;DHT22;2175;51.018;6.994;2023-04-01T18:57:47;10.00;99.90
4324;DHT22;2175;51.018;6.994;2023-04-01T19:02:52;9.90;99.90
4324;DHT22;2175;51.018;6.994;2023-04-01T19:05:36;9.90;99.90
4324;DHT22;2175;51.018;6.994;2023-04-01T19:27:37;9.90;99.90
4324;DHT22;2175;51.018;6.994;2023-04-01T19:38:43;9.80;99.90
4324;DHT22;2175;51.018;6.994;2023-04-01T19:41:22;9.80;99.90
4324;DHT22;2175;51.018;6.994;2023-04-01T19:47:12;9.70;99.90
4324;DHT22;2175;51.018;6.994;2023-04-01T19:52:36;9.70;99.90
4324;DHT22;2175;51.018;6.994;2023-04-01T19:55:33;9.70;99.90
4324;DHT22;2175;51.018;6.994;2023-04-01T20:01:00;9.80;99.90
4324;DHT22;2175;51.018;6.994;2023-04-01T20:03:40;9.70;99.90
4324;DHT22;2175;51.018;6.994;2023-04-01T20:06:35;9.60;99.90
4324;DHT22;2175;51.018;6.994;2023-04-01T20:14:56;9.60;99.90
4324;DHT22;2175;51.018;6.994;2023-04-01T20:17:26;9.50;99.90
4324;DHT22;2175;51.018;6.994;2023-04-01T20:19:59;9.60;99.90
4324;DHT22;2175;51.018;6.994;2023-04-01T20:26:10;9.60;99.90
4324;DHT22;2175;51.018;6.994;2023-04-01T20:28:21;9.60;99.90
4324;DHT22;2175;51.018;6.994;2023-04-01T20:33:36;9.60;99.90
4324;DHT22;2175;51.018;6.994;2023-04-01T20:36:16;9.50;99.90
4324;DHT22;2175;51.018;6.994;2023-04-01T20:39:08;9.50;99.90
4324;DHT22;2175;51.018;6.994;2023-04-01T20:47:26;9.50;99.90
4324;DHT22;2175;51.018;6.994;2023-04-01T20:50:18;9.50;99.90
4324;DHT22;2175;51.018;6.994;2023-04-01T20:53:04;9.50;99.90
4324;DHT22;2175;51.018;6.994;2023-04-01T21:04:16;9.50;99.90
4324;DHT22;2175;51.018;6.994;2023-04-01T21:09:53;9.40;99.90
4324;DHT22;2175;51.018;6.994;2023-04-01T21:20:33;9.30;99.90
4324;DHT22;2175;51.018;6.994;2023-04-01T21:31:13;9.50;99.90
4324;DHT22;2175;51.018;6.994;2023-04-01T21:36:55;9.60;99.90
4324;DHT22;2175;51.018;6.994;2023-04-01T21:39:33;9.60;99.90
4324;DHT22;2175;51.018;6.994;2023-04-01T22:05:14;9.80;99.90
4324;DHT22;2175;51.018;6.994;2023-04-01T22:08:01;9.80;99.90
4324;DHT22;2175;51.018;6.994;2023-04-01T22:13:37;9.70;99.90
4324;DHT22;2175;51.018;6.994;2023-04-01T22:19:00;9.80;99.90
4324;DHT22;2175;51.018;6.994;2023-04-01T22:32:39;9.80;99.90
4324;DHT22;2175;51.018;6.994;2023-04-01T22:40:25;9.80;99.90
4324;DHT22;2175;51.018;6.994;2023-04-01T22:43:08;9.80;99.90
4324;DHT22;2175;51.018;6.994;2023-04-01T22:48:38;9.90;99.90
4324;DHT22;2175;51.018;6.994;2023-04-01T22:56:33;9.90;99.90
4324;DHT22;2175;51.018;6.994;2023-04-01T22:59:08;9.90;99.90
4324;DHT22;2175;51.018;6.994;2023-04-01T23:01:42;9.80;99.90
4324;DHT22;2175;51.018;6.994;2023-04-01T23:04:12;9.80;99.90
4324;DHT22;2175;51.018;6.994;2023-04-01T23:06:46;9.90;99.90
4324;DHT22;2175;51.018;6.994;2023-04-01T23:09:25;10.00;99.90
4324;DHT22;2175;51.018;6.994;2023-04-01T23:12:11;9.90;99.90
4324;DHT22;2175;51.018;6.994;2023-04-01T23:14:47;9.90;99.90
4324;DHT22;2175;51.018;6.994;2023-04-01T23:17:34;9.90;99.90
4324;DHT22;2175;51.018;6.994;2023-04-01T23:25:46;9.90;99.90
4324;DHT22;2175;51.018;6.994;2023-04-01T23:28:19;9.90;99.90
4324;DHT22;2175;51.018;6.994;2023-04-01T23:30:49;9.90;99.90
4324;DHT22;2175;51.018;6.994;2023-04-01T23:36:13;9.90;99.90
4324;DHT22;2175;51.018;6.994;2023-04-01T23:38:42;9.90;99.90
4324;DHT22;2175;51.018;6.994;2023-04-01T23:41:16;9.90;99.90
4324;DHT22;2175;51.018;6.994;2023-04-01T23:43:44;9.90;99.90
4324;DHT22;2175;51.018;6.994;2023-04-01T23:46:11;9.90;99.90
4324;DHT22;2175;51.018;6.994;2023-04-01T23:48:43;9.90;99.90
4324;DHT22;2175;51.018;6.994;2023-04-01T23:51:22;9.90;99.90
4324;DHT22;2175;51.018;6.994;2023-04-01T23:54:01;10.00;99.90
4324;DHT22;2175;51.018;6.994;2023-04-01T23:56:46;9.90;99.90
4324;DHT22;2175;51.018;6.994;2023-04-01T23:59:26;9.90;99.90
